<?xml version="1.0" encoding="UTF-8" standalone="no" ?>
<gpx xmlns="http://www.topografix.com/GPX/1/1" xmlns:xsi="http://www.w3.org/2001/XMLSchema-instance" xsi:schemaLocation="http://www.topografix.com/GPX/1/1 http://www.topografix.com/GPX/1/1/gpx.xsd" version="1.1" creator="VisuGPX - https://www.visugpx.com">
  <metadata>
    <name>Sham treck</name>
    <desc><![CDATA[Sham treck, parcours d’acclimatation]]></desc>
  </metadata>
  <trk>
    <name><![CDATA[Sham Trek (Ladakh - Himalaya Indio)]]></name>
    <trkseg>
      <trkpt lat="34.27833" lon="77.19409">
        <ele>3549.827</ele>
        <time>2017-07-16T05:22:38Z</time>
      </trkpt>
      <trkpt lat="34.27808" lon="77.1937">
        <ele>3543.568</ele>
        <time>2017-07-16T05:24:45Z</time>
      </trkpt>
      <trkpt lat="34.27745" lon="77.19344">
        <ele>3536.814</ele>
        <time>2017-07-16T05:25:37Z</time>
      </trkpt>
      <trkpt lat="34.27616" lon="77.19334">
        <ele>3522.808</ele>
        <time>2017-07-16T05:29:14Z</time>
      </trkpt>
      <trkpt lat="34.27639" lon="77.19169">
        <ele>3520.993</ele>
        <time>2017-07-16T05:31:35Z</time>
      </trkpt>
      <trkpt lat="34.27666" lon="77.1913">
        <ele>3522.861</ele>
        <time>2017-07-16T05:32:12Z</time>
      </trkpt>
      <trkpt lat="34.27678" lon="77.19061">
        <ele>3529.115</ele>
        <time>2017-07-16T05:33:12Z</time>
      </trkpt>
      <trkpt lat="34.27755" lon="77.18948">
        <ele>3531.067</ele>
        <time>2017-07-16T05:35:02Z</time>
      </trkpt>
      <trkpt lat="34.27736" lon="77.18867">
        <ele>3538.286</ele>
        <time>2017-07-16T05:36:18Z</time>
      </trkpt>
      <trkpt lat="34.27743" lon="77.18756">
        <ele>3545.031</ele>
        <time>2017-07-16T05:37:55Z</time>
      </trkpt>
      <trkpt lat="34.27788" lon="77.18613">
        <ele>3556.02</ele>
        <time>2017-07-16T05:40:17Z</time>
      </trkpt>
      <trkpt lat="34.27789" lon="77.18536">
        <ele>3563.271</ele>
        <time>2017-07-16T05:41:35Z</time>
      </trkpt>
      <trkpt lat="34.27821" lon="77.18464">
        <ele>3570.411</ele>
        <time>2017-07-16T05:43:05Z</time>
      </trkpt>
      <trkpt lat="34.27824" lon="77.18417">
        <ele>3575.721</ele>
        <time>2017-07-16T05:43:53Z</time>
      </trkpt>
      <trkpt lat="34.27882" lon="77.18332">
        <ele>3582.903</ele>
        <time>2017-07-16T05:45:36Z</time>
      </trkpt>
      <trkpt lat="34.27932" lon="77.18137">
        <ele>3583.908</ele>
        <time>2017-07-16T05:51:49Z</time>
      </trkpt>
      <trkpt lat="34.27897" lon="77.18134">
        <ele>3574.832</ele>
        <time>2017-07-16T05:52:27Z</time>
      </trkpt>
      <trkpt lat="34.27933" lon="77.18042">
        <ele>3556.58</ele>
        <time>2017-07-16T05:53:37Z</time>
      </trkpt>
      <trkpt lat="34.27931" lon="77.17889">
        <ele>3525.254</ele>
        <time>2017-07-16T05:55:51Z</time>
      </trkpt>
      <trkpt lat="34.27947" lon="77.17831">
        <ele>3511.876</ele>
        <time>2017-07-16T05:57:16Z</time>
      </trkpt>
      <trkpt lat="34.2799" lon="77.17783">
        <ele>3499.385</ele>
        <time>2017-07-16T05:58:06Z</time>
      </trkpt>
      <trkpt lat="34.27996" lon="77.17684">
        <ele>3481.54</ele>
        <time>2017-07-16T05:59:19Z</time>
      </trkpt>
      <trkpt lat="34.28022" lon="77.17597">
        <ele>3466.119</ele>
        <time>2017-07-16T06:00:26Z</time>
      </trkpt>
      <trkpt lat="34.28024" lon="77.17513">
        <ele>3454.65</ele>
        <time>2017-07-16T06:01:23Z</time>
      </trkpt>
      <trkpt lat="34.2806" lon="77.17471">
        <ele>3452.231</ele>
        <time>2017-07-16T06:02:05Z</time>
      </trkpt>
      <trkpt lat="34.28125" lon="77.17442">
        <ele>3451.261</ele>
        <time>2017-07-16T06:03:05Z</time>
      </trkpt>
      <trkpt lat="34.28131" lon="77.17336">
        <ele>3443.107</ele>
        <time>2017-07-16T06:04:24Z</time>
      </trkpt>
      <trkpt lat="34.28115" lon="77.17262">
        <ele>3431.508</ele>
        <time>2017-07-16T06:06:03Z</time>
      </trkpt>
      <trkpt lat="34.28177" lon="77.17075">
        <ele>3423.894</ele>
        <time>2017-07-16T06:08:35Z</time>
      </trkpt>
      <trkpt lat="34.28235" lon="77.17052">
        <ele>3419.072</ele>
        <time>2017-07-16T06:09:38Z</time>
      </trkpt>
      <trkpt lat="34.28237" lon="77.16969">
        <ele>3431.016</ele>
        <time>2017-07-16T06:11:55Z</time>
      </trkpt>
      <trkpt lat="34.28209" lon="77.16955">
        <ele>3439.758</ele>
        <time>2017-07-16T06:13:16Z</time>
      </trkpt>
      <trkpt lat="34.28194" lon="77.16906">
        <ele>3435.837</ele>
        <time>2017-07-16T06:14:42Z</time>
      </trkpt>
      <trkpt lat="34.28149" lon="77.1685">
        <ele>3443.592</ele>
        <time>2017-07-16T06:15:44Z</time>
      </trkpt>
      <trkpt lat="34.28159" lon="77.16766">
        <ele>3451.731</ele>
        <time>2017-07-16T06:17:05Z</time>
      </trkpt>
      <trkpt lat="34.2822" lon="77.16809">
        <ele>3449.872</ele>
        <time>2017-07-16T06:18:05Z</time>
      </trkpt>
      <trkpt lat="34.28374" lon="77.16814">
        <ele>3441.643</ele>
        <time>2017-07-16T06:20:12Z</time>
      </trkpt>
      <trkpt lat="34.28377" lon="77.16798">
        <ele>3444.564</ele>
        <time>2017-07-16T06:20:25Z</time>
      </trkpt>
      <trkpt lat="34.28319" lon="77.16724">
        <ele>3443.51</ele>
        <time>2017-07-16T06:21:43Z</time>
      </trkpt>
      <trkpt lat="34.28328" lon="77.16701">
        <ele>3443.108</ele>
        <time>2017-07-16T06:23:35Z</time>
      </trkpt>
      <trkpt lat="34.28405" lon="77.16664">
        <ele>3441.675</ele>
        <time>2017-07-16T06:24:49Z</time>
      </trkpt>
      <trkpt lat="34.28394" lon="77.16613">
        <ele>3444.523</ele>
        <time>2017-07-16T06:25:50Z</time>
      </trkpt>
      <trkpt lat="34.28354" lon="77.16612">
        <ele>3448.877</ele>
        <time>2017-07-16T06:26:38Z</time>
      </trkpt>
      <trkpt lat="34.28419" lon="77.16393">
        <ele>3469.079</ele>
        <time>2017-07-16T06:31:09Z</time>
      </trkpt>
      <trkpt lat="34.28411" lon="77.16376">
        <ele>3464.278</ele>
        <time>2017-07-16T06:31:34Z</time>
      </trkpt>
      <trkpt lat="34.28474" lon="77.163">
        <ele>3436.873</ele>
        <time>2017-07-16T06:33:36Z</time>
      </trkpt>
      <trkpt lat="34.28465" lon="77.1626">
        <ele>3434.492</ele>
        <time>2017-07-16T06:34:09Z</time>
      </trkpt>
      <trkpt lat="34.28511" lon="77.16167">
        <ele>3428.223</ele>
        <time>2017-07-16T06:35:33Z</time>
      </trkpt>
      <trkpt lat="34.28679" lon="77.16027">
        <ele>3445.919</ele>
        <time>2017-07-16T06:42:08Z</time>
      </trkpt>
      <trkpt lat="34.28777" lon="77.15891">
        <ele>3453.609</ele>
        <time>2017-07-16T06:44:53Z</time>
      </trkpt>
      <trkpt lat="34.28864" lon="77.15845">
        <ele>3460.419</ele>
        <time>2017-07-16T06:46:42Z</time>
      </trkpt>
      <trkpt lat="34.28896" lon="77.15855">
        <ele>3463.208</ele>
        <time>2017-07-16T07:05:42Z</time>
      </trkpt>
      <trkpt lat="34.28879" lon="77.15831">
        <ele>3464.772</ele>
        <time>2017-07-16T07:14:57Z</time>
      </trkpt>
      <trkpt lat="34.28901" lon="77.15741">
        <ele>3465.21</ele>
        <time>2017-07-16T07:18:19Z</time>
      </trkpt>
      <trkpt lat="34.29005" lon="77.15593">
        <ele>3491.684</ele>
        <time>2017-07-16T07:22:16Z</time>
      </trkpt>
      <trkpt lat="34.29065" lon="77.1554">
        <ele>3491.616</ele>
        <time>2017-07-16T07:24:03Z</time>
      </trkpt>
      <trkpt lat="34.2911" lon="77.1545">
        <ele>3503.675</ele>
        <time>2017-07-16T07:25:49Z</time>
      </trkpt>
      <trkpt lat="34.29144" lon="77.15431">
        <ele>3507.57</ele>
        <time>2017-07-16T07:26:40Z</time>
      </trkpt>
      <trkpt lat="34.29168" lon="77.15366">
        <ele>3517.169</ele>
        <time>2017-07-16T07:28:15Z</time>
      </trkpt>
      <trkpt lat="34.29245" lon="77.15381">
        <ele>3528.62</ele>
        <time>2017-07-16T07:30:00Z</time>
      </trkpt>
      <trkpt lat="34.29276" lon="77.15422">
        <ele>3535.339</ele>
        <time>2017-07-16T07:31:08Z</time>
      </trkpt>
      <trkpt lat="34.29307" lon="77.15421">
        <ele>3541.601</ele>
        <time>2017-07-16T07:31:58Z</time>
      </trkpt>
      <trkpt lat="34.29382" lon="77.15367">
        <ele>3552.621</ele>
        <time>2017-07-16T07:34:00Z</time>
      </trkpt>
      <trkpt lat="34.29415" lon="77.15302">
        <ele>3557.908</ele>
        <time>2017-07-16T07:35:29Z</time>
      </trkpt>
      <trkpt lat="34.29453" lon="77.1528">
        <ele>3562.384</ele>
        <time>2017-07-16T07:36:31Z</time>
      </trkpt>
      <trkpt lat="34.29434" lon="77.15251">
        <ele>3567.162</ele>
        <time>2017-07-16T07:37:20Z</time>
      </trkpt>
      <trkpt lat="34.29519" lon="77.15139">
        <ele>3584.896</ele>
        <time>2017-07-16T07:41:03Z</time>
      </trkpt>
      <trkpt lat="34.29527" lon="77.15067">
        <ele>3598.828</ele>
        <time>2017-07-16T07:43:04Z</time>
      </trkpt>
      <trkpt lat="34.29555" lon="77.15029">
        <ele>3601.787</ele>
        <time>2017-07-16T07:44:08Z</time>
      </trkpt>
      <trkpt lat="34.29548" lon="77.14923">
        <ele>3618.042</ele>
        <time>2017-07-16T07:46:51Z</time>
      </trkpt>
      <trkpt lat="34.29578" lon="77.14842">
        <ele>3627.131</ele>
        <time>2017-07-16T07:49:11Z</time>
      </trkpt>
      <trkpt lat="34.29585" lon="77.14735">
        <ele>3644.042</ele>
        <time>2017-07-16T07:51:53Z</time>
      </trkpt>
      <trkpt lat="34.29629" lon="77.14642">
        <ele>3665.113</ele>
        <time>2017-07-16T07:55:29Z</time>
      </trkpt>
      <trkpt lat="34.29617" lon="77.14526">
        <ele>3687.743</ele>
        <time>2017-07-16T07:58:50Z</time>
      </trkpt>
      <trkpt lat="34.29679" lon="77.14352">
        <ele>3712.707</ele>
        <time>2017-07-16T08:05:58Z</time>
      </trkpt>
      <trkpt lat="34.29712" lon="77.14204">
        <ele>3732.908</ele>
        <time>2017-07-16T08:09:39Z</time>
      </trkpt>
      <trkpt lat="34.29706" lon="77.14153">
        <ele>3735.812</ele>
        <time>2017-07-16T08:10:38Z</time>
      </trkpt>
      <trkpt lat="34.29772" lon="77.14103">
        <ele>3729.52</ele>
        <time>2017-07-16T08:12:19Z</time>
      </trkpt>
      <trkpt lat="34.29844" lon="77.13991">
        <ele>3725.224</ele>
        <time>2017-07-16T08:14:06Z</time>
      </trkpt>
      <trkpt lat="34.2986" lon="77.14013">
        <ele>3722.346</ele>
        <time>2017-07-16T08:14:27Z</time>
      </trkpt>
      <trkpt lat="34.29869" lon="77.14095">
        <ele>3722.395</ele>
        <time>2017-07-16T08:15:25Z</time>
      </trkpt>
      <trkpt lat="34.29881" lon="77.14099">
        <ele>3722.82</ele>
        <time>2017-07-16T08:15:43Z</time>
      </trkpt>
      <trkpt lat="34.3006" lon="77.13896">
        <ele>3719.499</ele>
        <time>2017-07-16T08:21:28Z</time>
      </trkpt>
      <trkpt lat="34.30049" lon="77.1386">
        <ele>3719.92</ele>
        <time>2017-07-16T08:23:03Z</time>
      </trkpt>
      <trkpt lat="34.30067" lon="77.13834">
        <ele>3720.462</ele>
        <time>2017-07-16T08:23:50Z</time>
      </trkpt>
      <trkpt lat="34.30118" lon="77.13815">
        <ele>3717.583</ele>
        <time>2017-07-16T08:24:41Z</time>
      </trkpt>
      <trkpt lat="34.3019" lon="77.13685">
        <ele>3717.511</ele>
        <time>2017-07-16T08:26:52Z</time>
      </trkpt>
      <trkpt lat="34.30311" lon="77.13637">
        <ele>3711.708</ele>
        <time>2017-07-16T08:28:48Z</time>
      </trkpt>
      <trkpt lat="34.30408" lon="77.13557">
        <ele>3710.877</ele>
        <time>2017-07-16T08:30:29Z</time>
      </trkpt>
      <trkpt lat="34.30415" lon="77.13491">
        <ele>3712.735</ele>
        <time>2017-07-16T08:31:34Z</time>
      </trkpt>
      <trkpt lat="34.30474" lon="77.13463">
        <ele>3708.999</ele>
        <time>2017-07-16T08:33:00Z</time>
      </trkpt>
      <trkpt lat="34.30522" lon="77.13391">
        <ele>3706.581</ele>
        <time>2017-07-16T08:34:08Z</time>
      </trkpt>
      <trkpt lat="34.30511" lon="77.13269">
        <ele>3706.52</ele>
        <time>2017-07-16T08:35:42Z</time>
      </trkpt>
      <trkpt lat="34.30436" lon="77.13169">
        <ele>3705.085</ele>
        <time>2017-07-16T08:37:38Z</time>
      </trkpt>
      <trkpt lat="34.30464" lon="77.13145">
        <ele>3702.684</ele>
        <time>2017-07-16T08:38:08Z</time>
      </trkpt>
      <trkpt lat="34.30465" lon="77.131">
        <ele>3701.285</ele>
        <time>2017-07-16T08:38:41Z</time>
      </trkpt>
      <trkpt lat="34.30518" lon="77.13052">
        <ele>3696.875</ele>
        <time>2017-07-16T08:39:42Z</time>
      </trkpt>
      <trkpt lat="34.30538" lon="77.12877">
        <ele>3688.228</ele>
        <time>2017-07-16T08:41:51Z</time>
      </trkpt>
      <trkpt lat="34.30484" lon="77.12767">
        <ele>3693.52</ele>
        <time>2017-07-16T08:43:31Z</time>
      </trkpt>
      <trkpt lat="34.30477" lon="77.12663">
        <ele>3686.708</ele>
        <time>2017-07-16T08:45:01Z</time>
      </trkpt>
      <trkpt lat="34.30463" lon="77.12641">
        <ele>3684.848</ele>
        <time>2017-07-16T08:45:31Z</time>
      </trkpt>
      <trkpt lat="34.3042" lon="77.12646">
        <ele>3682.426</ele>
        <time>2017-07-16T08:46:24Z</time>
      </trkpt>
      <trkpt lat="34.30327" lon="77.12566">
        <ele>3663.25</ele>
        <time>2017-07-16T08:48:45Z</time>
      </trkpt>
      <trkpt lat="34.30238" lon="77.12579">
        <ele>3655.062</ele>
        <time>2017-07-16T08:51:52Z</time>
      </trkpt>
      <trkpt lat="34.3021" lon="77.12566">
        <ele>3652.671</ele>
        <time>2017-07-16T08:53:48Z</time>
      </trkpt>
      <trkpt lat="34.30192" lon="77.12476">
        <ele>3660.896</ele>
        <time>2017-07-17T03:34:06Z</time>
      </trkpt>
      <trkpt lat="34.30214" lon="77.12431">
        <ele>3666.635</ele>
        <time>2017-07-17T03:34:52Z</time>
      </trkpt>
      <trkpt lat="34.30332" lon="77.12385">
        <ele>3672.326</ele>
        <time>2017-07-17T03:37:17Z</time>
      </trkpt>
      <trkpt lat="34.30382" lon="77.12398">
        <ele>3659.446</ele>
        <time>2017-07-17T03:38:17Z</time>
      </trkpt>
      <trkpt lat="34.30433" lon="77.1237">
        <ele>3652.688</ele>
        <time>2017-07-17T03:39:13Z</time>
      </trkpt>
      <trkpt lat="34.30479" lon="77.12269">
        <ele>3646.916</ele>
        <time>2017-07-17T03:40:49Z</time>
      </trkpt>
      <trkpt lat="34.30498" lon="77.12186">
        <ele>3628.608</ele>
        <time>2017-07-17T03:42:02Z</time>
      </trkpt>
      <trkpt lat="34.30537" lon="77.12128">
        <ele>3609.445</ele>
        <time>2017-07-17T03:43:19Z</time>
      </trkpt>
      <trkpt lat="34.30625" lon="77.12056">
        <ele>3592.123</ele>
        <time>2017-07-17T03:46:14Z</time>
      </trkpt>
      <trkpt lat="34.30663" lon="77.12044">
        <ele>3588.267</ele>
        <time>2017-07-17T03:49:35Z</time>
      </trkpt>
      <trkpt lat="34.30666" lon="77.11998">
        <ele>3595.959</ele>
        <time>2017-07-17T03:50:36Z</time>
      </trkpt>
      <trkpt lat="34.30706" lon="77.11953">
        <ele>3604.158</ele>
        <time>2017-07-17T03:52:59Z</time>
      </trkpt>
      <trkpt lat="34.30719" lon="77.11967">
        <ele>3604.183</ele>
        <time>2017-07-17T03:55:15Z</time>
      </trkpt>
      <trkpt lat="34.30784" lon="77.11939">
        <ele>3618.082</ele>
        <time>2017-07-17T03:57:32Z</time>
      </trkpt>
      <trkpt lat="34.30774" lon="77.11922">
        <ele>3622.333</ele>
        <time>2017-07-17T03:58:26Z</time>
      </trkpt>
      <trkpt lat="34.30785" lon="77.11887">
        <ele>3630.064</ele>
        <time>2017-07-17T03:59:34Z</time>
      </trkpt>
      <trkpt lat="34.30852" lon="77.11888">
        <ele>3636.806</ele>
        <time>2017-07-17T04:01:11Z</time>
      </trkpt>
      <trkpt lat="34.30791" lon="77.1185">
        <ele>3639.616</ele>
        <time>2017-07-17T04:02:25Z</time>
      </trkpt>
      <trkpt lat="34.30797" lon="77.11793">
        <ele>3644.508</ele>
        <time>2017-07-17T04:03:16Z</time>
      </trkpt>
      <trkpt lat="34.3089" lon="77.11654">
        <ele>3663.237</ele>
        <time>2017-07-17T04:07:05Z</time>
      </trkpt>
      <trkpt lat="34.3094" lon="77.11472">
        <ele>3684.855</ele>
        <time>2017-07-17T04:11:08Z</time>
      </trkpt>
      <trkpt lat="34.30967" lon="77.1144">
        <ele>3688.749</ele>
        <time>2017-07-17T04:12:07Z</time>
      </trkpt>
      <trkpt lat="34.30957" lon="77.11383">
        <ele>3695.941</ele>
        <time>2017-07-17T04:13:26Z</time>
      </trkpt>
      <trkpt lat="34.3097" lon="77.11349">
        <ele>3699.29</ele>
        <time>2017-07-17T04:14:23Z</time>
      </trkpt>
      <trkpt lat="34.30961" lon="77.11356">
        <ele>3698.355</ele>
        <time>2017-07-17T04:16:21Z</time>
      </trkpt>
      <trkpt lat="34.30999" lon="77.1131">
        <ele>3705.574</ele>
        <time>2017-07-17T04:17:43Z</time>
      </trkpt>
      <trkpt lat="34.3098" lon="77.1123">
        <ele>3715.625</ele>
        <time>2017-07-17T04:19:34Z</time>
      </trkpt>
      <trkpt lat="34.31066" lon="77.10884">
        <ele>3762.751</ele>
        <time>2017-07-17T04:28:00Z</time>
      </trkpt>
      <trkpt lat="34.31071" lon="77.10651">
        <ele>3804.001</ele>
        <time>2017-07-17T04:35:45Z</time>
      </trkpt>
      <trkpt lat="34.31048" lon="77.10674">
        <ele>3811.211</ele>
        <time>2017-07-17T04:37:05Z</time>
      </trkpt>
      <trkpt lat="34.31054" lon="77.10587">
        <ele>3825.708</ele>
        <time>2017-07-17T04:39:18Z</time>
      </trkpt>
      <trkpt lat="34.31072" lon="77.10539">
        <ele>3837.296</ele>
        <time>2017-07-17T04:40:50Z</time>
      </trkpt>
      <trkpt lat="34.31202" lon="77.10413">
        <ele>3868.454</ele>
        <time>2017-07-17T04:46:19Z</time>
      </trkpt>
      <trkpt lat="34.31232" lon="77.10416">
        <ele>3870.428</ele>
        <time>2017-07-17T04:47:28Z</time>
      </trkpt>
      <trkpt lat="34.31239" lon="77.10378">
        <ele>3876.15</ele>
        <time>2017-07-17T04:48:16Z</time>
      </trkpt>
      <trkpt lat="34.31288" lon="77.10301">
        <ele>3893.999</ele>
        <time>2017-07-17T04:51:38Z</time>
      </trkpt>
      <trkpt lat="34.31262" lon="77.10281">
        <ele>3897.834</ele>
        <time>2017-07-17T04:53:14Z</time>
      </trkpt>
      <trkpt lat="34.31266" lon="77.10268">
        <ele>3899.253</ele>
        <time>2017-07-17T04:53:56Z</time>
      </trkpt>
      <trkpt lat="34.31282" lon="77.10299">
        <ele>3890.114</ele>
        <time>2017-07-17T04:59:35Z</time>
      </trkpt>
      <trkpt lat="34.31297" lon="77.10252">
        <ele>3885.377</ele>
        <time>2017-07-17T05:05:02Z</time>
      </trkpt>
      <trkpt lat="34.31295" lon="77.10188">
        <ele>3868.961</ele>
        <time>2017-07-17T05:05:59Z</time>
      </trkpt>
      <trkpt lat="34.31332" lon="77.1013">
        <ele>3861.227</ele>
        <time>2017-07-17T05:06:58Z</time>
      </trkpt>
      <trkpt lat="34.31324" lon="77.09994">
        <ele>3848.708</ele>
        <time>2017-07-17T05:08:36Z</time>
      </trkpt>
      <trkpt lat="34.31305" lon="77.09971">
        <ele>3842.068</ele>
        <time>2017-07-17T05:09:06Z</time>
      </trkpt>
      <trkpt lat="34.31324" lon="77.09818">
        <ele>3827.176</ele>
        <time>2017-07-17T05:11:09Z</time>
      </trkpt>
      <trkpt lat="34.31403" lon="77.09697">
        <ele>3801.61</ele>
        <time>2017-07-17T05:13:21Z</time>
      </trkpt>
      <trkpt lat="34.31426" lon="77.09581">
        <ele>3787.742</ele>
        <time>2017-07-17T05:15:03Z</time>
      </trkpt>
      <trkpt lat="34.31474" lon="77.09528">
        <ele>3786.241</ele>
        <time>2017-07-17T05:16:00Z</time>
      </trkpt>
      <trkpt lat="34.31469" lon="77.09475">
        <ele>3779.076</ele>
        <time>2017-07-17T05:16:42Z</time>
      </trkpt>
      <trkpt lat="34.31516" lon="77.09374">
        <ele>3771.875</ele>
        <time>2017-07-17T05:18:08Z</time>
      </trkpt>
      <trkpt lat="34.31519" lon="77.0931">
        <ele>3756.956</ele>
        <time>2017-07-17T05:19:13Z</time>
      </trkpt>
      <trkpt lat="34.31548" lon="77.0924">
        <ele>3747.354</ele>
        <time>2017-07-17T05:20:20Z</time>
      </trkpt>
      <trkpt lat="34.31558" lon="77.09031">
        <ele>3727.656</ele>
        <time>2017-07-17T05:23:28Z</time>
      </trkpt>
      <trkpt lat="34.31546" lon="77.08984">
        <ele>3724.711</ele>
        <time>2017-07-17T05:24:04Z</time>
      </trkpt>
      <trkpt lat="34.31616" lon="77.08707">
        <ele>3705.008</ele>
        <time>2017-07-17T05:28:02Z</time>
      </trkpt>
      <trkpt lat="34.31627" lon="77.0847">
        <ele>3694.466</ele>
        <time>2017-07-17T05:30:58Z</time>
      </trkpt>
      <trkpt lat="34.3167" lon="77.08369">
        <ele>3693.074</ele>
        <time>2017-07-17T05:32:20Z</time>
      </trkpt>
      <trkpt lat="34.31676" lon="77.08261">
        <ele>3681.038</ele>
        <time>2017-07-17T05:33:41Z</time>
      </trkpt>
      <trkpt lat="34.31704" lon="77.08157">
        <ele>3678.64</ele>
        <time>2017-07-17T05:34:55Z</time>
      </trkpt>
      <trkpt lat="34.31699" lon="77.08055">
        <ele>3681.919</ele>
        <time>2017-07-17T05:36:38Z</time>
      </trkpt>
      <trkpt lat="34.31681" lon="77.08035">
        <ele>3683.414</ele>
        <time>2017-07-17T05:39:37Z</time>
      </trkpt>
      <trkpt lat="34.31701" lon="77.08054">
        <ele>3680.013</ele>
        <time>2017-07-17T05:41:03Z</time>
      </trkpt>
      <trkpt lat="34.31673" lon="77.08045">
        <ele>3684.354</ele>
        <time>2017-07-17T05:41:38Z</time>
      </trkpt>
      <trkpt lat="34.31669" lon="77.08027">
        <ele>3684.381</ele>
        <time>2017-07-17T05:41:53Z</time>
      </trkpt>
      <trkpt lat="34.31688" lon="77.08009">
        <ele>3682.961</ele>
        <time>2017-07-17T05:42:25Z</time>
      </trkpt>
      <trkpt lat="34.31702" lon="77.07935">
        <ele>3682.417</ele>
        <time>2017-07-17T05:47:25Z</time>
      </trkpt>
      <trkpt lat="34.31689" lon="77.07873">
        <ele>3680.508</ele>
        <time>2017-07-17T05:48:27Z</time>
      </trkpt>
      <trkpt lat="34.31666" lon="77.07838">
        <ele>3686.759</ele>
        <time>2017-07-17T05:49:24Z</time>
      </trkpt>
      <trkpt lat="34.31687" lon="77.07807">
        <ele>3693.047</ele>
        <time>2017-07-17T05:50:20Z</time>
      </trkpt>
      <trkpt lat="34.31719" lon="77.07813">
        <ele>3695.931</ele>
        <time>2017-07-17T05:50:54Z</time>
      </trkpt>
      <trkpt lat="34.3173" lon="77.07799">
        <ele>3700.763</ele>
        <time>2017-07-17T05:51:15Z</time>
      </trkpt>
      <trkpt lat="34.31708" lon="77.0773">
        <ele>3697.812</ele>
        <time>2017-07-17T05:53:16Z</time>
      </trkpt>
      <trkpt lat="34.31733" lon="77.07694">
        <ele>3692.047</ele>
        <time>2017-07-18T03:27:44Z</time>
      </trkpt>
      <trkpt lat="34.31712" lon="77.07715">
        <ele>3686.326</ele>
        <time>2017-07-18T03:28:54Z</time>
      </trkpt>
      <trkpt lat="34.31698" lon="77.07685">
        <ele>3693.047</ele>
        <time>2017-07-18T03:29:40Z</time>
      </trkpt>
      <trkpt lat="34.31725" lon="77.07648">
        <ele>3697.876</ele>
        <time>2017-07-18T03:30:19Z</time>
      </trkpt>
      <trkpt lat="34.31726" lon="77.07507">
        <ele>3692.59</ele>
        <time>2017-07-18T03:32:40Z</time>
      </trkpt>
      <trkpt lat="34.31698" lon="77.07406">
        <ele>3696.819</ele>
        <time>2017-07-18T03:35:15Z</time>
      </trkpt>
      <trkpt lat="34.3194" lon="77.07285">
        <ele>3723.308</ele>
        <time>2017-07-18T03:42:26Z</time>
      </trkpt>
      <trkpt lat="34.32036" lon="77.07169">
        <ele>3748.888</ele>
        <time>2017-07-18T03:47:41Z</time>
      </trkpt>
      <trkpt lat="34.3203" lon="77.07127">
        <ele>3753.166</ele>
        <time>2017-07-18T03:48:36Z</time>
      </trkpt>
      <trkpt lat="34.32214" lon="77.07107">
        <ele>3754.54</ele>
        <time>2017-07-18T03:51:55Z</time>
      </trkpt>
      <trkpt lat="34.32313" lon="77.06959">
        <ele>3774.262</ele>
        <time>2017-07-18T03:56:21Z</time>
      </trkpt>
      <trkpt lat="34.32427" lon="77.0684">
        <ele>3779.531</ele>
        <time>2017-07-18T04:01:42Z</time>
      </trkpt>
      <trkpt lat="34.32496" lon="77.06725">
        <ele>3793.016</ele>
        <time>2017-07-18T04:04:17Z</time>
      </trkpt>
      <trkpt lat="34.32656" lon="77.06335">
        <ele>3808.815</ele>
        <time>2017-07-18T04:10:39Z</time>
      </trkpt>
      <trkpt lat="34.32679" lon="77.06328">
        <ele>3811.276</ele>
        <time>2017-07-18T04:11:56Z</time>
      </trkpt>
      <trkpt lat="34.3267" lon="77.0629">
        <ele>3807.973</ele>
        <time>2017-07-18T04:18:20Z</time>
      </trkpt>
      <trkpt lat="34.32703" lon="77.0628">
        <ele>3804.085</ele>
        <time>2017-07-18T04:21:14Z</time>
      </trkpt>
      <trkpt lat="34.32688" lon="77.06243">
        <ele>3796.313</ele>
        <time>2017-07-18T04:21:56Z</time>
      </trkpt>
      <trkpt lat="34.32698" lon="77.06197">
        <ele>3791.108</ele>
        <time>2017-07-18T04:22:29Z</time>
      </trkpt>
      <trkpt lat="34.32687" lon="77.06067">
        <ele>3754.598</ele>
        <time>2017-07-18T04:24:27Z</time>
      </trkpt>
      <trkpt lat="34.32694" lon="77.05985">
        <ele>3743.516</ele>
        <time>2017-07-18T04:25:41Z</time>
      </trkpt>
      <trkpt lat="34.32711" lon="77.05951">
        <ele>3734.89</ele>
        <time>2017-07-18T04:26:17Z</time>
      </trkpt>
      <trkpt lat="34.32738" lon="77.05988">
        <ele>3728.682</ele>
        <time>2017-07-18T04:27:05Z</time>
      </trkpt>
      <trkpt lat="34.32785" lon="77.05759">
        <ele>3680.521</ele>
        <time>2017-07-18T04:30:01Z</time>
      </trkpt>
      <trkpt lat="34.32824" lon="77.0568">
        <ele>3663.266</ele>
        <time>2017-07-18T04:31:13Z</time>
      </trkpt>
      <trkpt lat="34.32833" lon="77.05531">
        <ele>3632.085</ele>
        <time>2017-07-18T04:33:39Z</time>
      </trkpt>
      <trkpt lat="34.32859" lon="77.0544">
        <ele>3626.286</ele>
        <time>2017-07-18T04:35:22Z</time>
      </trkpt>
      <trkpt lat="34.32868" lon="77.05333">
        <ele>3614.655</ele>
        <time>2017-07-18T04:36:36Z</time>
      </trkpt>
      <trkpt lat="34.32914" lon="77.05267">
        <ele>3604.607</ele>
        <time>2017-07-18T04:38:33Z</time>
      </trkpt>
      <trkpt lat="34.33017" lon="77.05212">
        <ele>3621.417</ele>
        <time>2017-07-18T04:41:09Z</time>
      </trkpt>
      <trkpt lat="34.33111" lon="77.05206">
        <ele>3636.808</ele>
        <time>2017-07-18T04:43:33Z</time>
      </trkpt>
      <trkpt lat="34.33269" lon="77.05066">
        <ele>3674.346</ele>
        <time>2017-07-18T04:49:39Z</time>
      </trkpt>
      <trkpt lat="34.33358" lon="77.05047">
        <ele>3705.024</ele>
        <time>2017-07-18T04:54:21Z</time>
      </trkpt>
      <trkpt lat="34.33352" lon="77.05016">
        <ele>3712.768</ele>
        <time>2017-07-18T04:55:56Z</time>
      </trkpt>
      <trkpt lat="34.33374" lon="77.05001">
        <ele>3720.41</ele>
        <time>2017-07-18T04:57:33Z</time>
      </trkpt>
      <trkpt lat="34.33366" lon="77.04977">
        <ele>3720.429</ele>
        <time>2017-07-18T04:58:06Z</time>
      </trkpt>
      <trkpt lat="34.33312" lon="77.04947">
        <ele>3734.344</ele>
        <time>2017-07-18T05:00:43Z</time>
      </trkpt>
      <trkpt lat="34.33246" lon="77.04936">
        <ele>3743.593</ele>
        <time>2017-07-18T05:01:40Z</time>
      </trkpt>
      <trkpt lat="34.33128" lon="77.04984">
        <ele>3756.484</ele>
        <time>2017-07-18T05:04:36Z</time>
      </trkpt>
      <trkpt lat="34.33133" lon="77.04961">
        <ele>3761.799</ele>
        <time>2017-07-18T05:05:18Z</time>
      </trkpt>
      <trkpt lat="34.33215" lon="77.04875">
        <ele>3793.907</ele>
        <time>2017-07-18T05:10:03Z</time>
      </trkpt>
      <trkpt lat="34.33366" lon="77.048">
        <ele>3835.327</ele>
        <time>2017-07-18T05:17:17Z</time>
      </trkpt>
      <trkpt lat="34.33444" lon="77.04781">
        <ele>3857.908</ele>
        <time>2017-07-18T05:20:46Z</time>
      </trkpt>
      <trkpt lat="34.33468" lon="77.04794">
        <ele>3865.62</ele>
        <time>2017-07-18T05:22:34Z</time>
      </trkpt>
      <trkpt lat="34.3344" lon="77.04765">
        <ele>3858.368</ele>
        <time>2017-07-18T05:25:29Z</time>
      </trkpt>
      <trkpt lat="34.33402" lon="77.04796">
        <ele>3842.042</ele>
        <time>2017-07-18T05:26:24Z</time>
      </trkpt>
      <trkpt lat="34.33267" lon="77.04786">
        <ele>3849.214</ele>
        <time>2017-07-18T05:29:13Z</time>
      </trkpt>
      <trkpt lat="34.33282" lon="77.04655">
        <ele>3867.083</ele>
        <time>2017-07-18T05:32:18Z</time>
      </trkpt>
      <trkpt lat="34.3325" lon="77.04597">
        <ele>3869.488</ele>
        <time>2017-07-18T05:34:47Z</time>
      </trkpt>
      <trkpt lat="34.3328" lon="77.04662">
        <ele>3863.287</ele>
        <time>2017-07-18T05:46:43Z</time>
      </trkpt>
      <trkpt lat="34.33268" lon="77.04787">
        <ele>3848.238</ele>
        <time>2017-07-18T05:48:23Z</time>
      </trkpt>
      <trkpt lat="34.33362" lon="77.04794">
        <ele>3836.219</ele>
        <time>2017-07-18T05:50:07Z</time>
      </trkpt>
      <trkpt lat="34.33383" lon="77.04608">
        <ele>3816.009</ele>
        <time>2017-07-18T05:56:23Z</time>
      </trkpt>
      <trkpt lat="34.33373" lon="77.0453">
        <ele>3807.919</ele>
        <time>2017-07-18T05:57:20Z</time>
      </trkpt>
      <trkpt lat="34.33427" lon="77.04284">
        <ele>3773.308</ele>
        <time>2017-07-18T06:00:51Z</time>
      </trkpt>
      <trkpt lat="34.33446" lon="77.04254">
        <ele>3764.192</ele>
        <time>2017-07-18T06:01:36Z</time>
      </trkpt>
      <trkpt lat="34.33443" lon="77.04203">
        <ele>3758.86</ele>
        <time>2017-07-18T06:02:52Z</time>
      </trkpt>
      <trkpt lat="34.33395" lon="77.04144">
        <ele>3741.154</ele>
        <time>2017-07-18T06:04:23Z</time>
      </trkpt>
      <trkpt lat="34.33355" lon="77.03947">
        <ele>3717.036</ele>
        <time>2017-07-18T06:06:56Z</time>
      </trkpt>
      <trkpt lat="34.33316" lon="77.03863">
        <ele>3708.485</ele>
        <time>2017-07-18T06:08:05Z</time>
      </trkpt>
      <trkpt lat="34.33364" lon="77.03748">
        <ele>3697.39</ele>
        <time>2017-07-18T06:09:42Z</time>
      </trkpt>
      <trkpt lat="34.33299" lon="77.03491">
        <ele>3670.989</ele>
        <time>2017-07-18T06:12:54Z</time>
      </trkpt>
      <trkpt lat="34.33319" lon="77.03277">
        <ele>3648.88</ele>
        <time>2017-07-18T06:16:09Z</time>
      </trkpt>
      <trkpt lat="34.33283" lon="77.03243">
        <ele>3639.699</ele>
        <time>2017-07-18T06:16:50Z</time>
      </trkpt>
      <trkpt lat="34.33275" lon="77.03173">
        <ele>3632.907</ele>
        <time>2017-07-18T06:17:43Z</time>
      </trkpt>
      <trkpt lat="34.33239" lon="77.03122">
        <ele>3621.927</ele>
        <time>2017-07-18T06:18:44Z</time>
      </trkpt>
      <trkpt lat="34.33226" lon="77.03074">
        <ele>3611.308</ele>
        <time>2017-07-18T06:19:30Z</time>
      </trkpt>
      <trkpt lat="34.33199" lon="77.03069">
        <ele>3599.71</ele>
        <time>2017-07-18T06:20:05Z</time>
      </trkpt>
      <trkpt lat="34.33179" lon="77.03013">
        <ele>3589.248</ele>
        <time>2017-07-18T06:20:54Z</time>
      </trkpt>
      <trkpt lat="34.332" lon="77.02877">
        <ele>3577.692</ele>
        <time>2017-07-18T06:23:35Z</time>
      </trkpt>
      <trkpt lat="34.33193" lon="77.02755">
        <ele>3553.154</ele>
        <time>2017-07-18T06:25:14Z</time>
      </trkpt>
      <trkpt lat="34.33255" lon="77.02555">
        <ele>3532.053</ele>
        <time>2017-07-18T06:27:47Z</time>
      </trkpt>
      <trkpt lat="34.33241" lon="77.0245">
        <ele>3527.638</ele>
        <time>2017-07-18T06:29:06Z</time>
      </trkpt>
      <trkpt lat="34.33206" lon="77.02399">
        <ele>3524.377</ele>
        <time>2017-07-18T06:30:22Z</time>
      </trkpt>
      <trkpt lat="34.33187" lon="77.02301">
        <ele>3516.168</ele>
        <time>2017-07-18T06:44:59Z</time>
      </trkpt>
      <trkpt lat="34.33183" lon="77.02313">
        <ele>3518.552</ele>
        <time>2017-07-18T06:57:20Z</time>
      </trkpt>
      <trkpt lat="34.33141" lon="77.022">
        <ele>3503.153</ele>
        <time>2017-07-18T07:00:22Z</time>
      </trkpt>
      <trkpt lat="34.3316" lon="77.02154">
        <ele>3496.908</ele>
        <time>2017-07-18T07:01:22Z</time>
      </trkpt>
      <trkpt lat="34.3315" lon="77.02086">
        <ele>3491.108</ele>
        <time>2017-07-18T07:02:41Z</time>
      </trkpt>
      <trkpt lat="34.33023" lon="77.02006">
        <ele>3471.956</ele>
        <time>2017-07-18T07:04:28Z</time>
      </trkpt>
      <trkpt lat="34.32972" lon="77.01812">
        <ele>3458.944</ele>
        <time>2017-07-18T07:07:57Z</time>
      </trkpt>
      <trkpt lat="34.32954" lon="77.01639">
        <ele>3450.318</ele>
        <time>2017-07-18T07:09:47Z</time>
      </trkpt>
      <trkpt lat="34.32867" lon="77.01521">
        <ele>3433.46</ele>
        <time>2017-07-18T07:11:20Z</time>
      </trkpt>
      <trkpt lat="34.32861" lon="77.01479">
        <ele>3430.639</ele>
        <time>2017-07-18T07:11:47Z</time>
      </trkpt>
      <trkpt lat="34.32886" lon="77.01394">
        <ele>3429.644</ele>
        <time>2017-07-18T07:12:46Z</time>
      </trkpt>
      <trkpt lat="34.329" lon="77.01254">
        <ele>3428.653</ele>
        <time>2017-07-18T07:14:14Z</time>
      </trkpt>
      <trkpt lat="34.32936" lon="77.01173">
        <ele>3437.864</ele>
        <time>2017-07-18T07:15:19Z</time>
      </trkpt>
      <trkpt lat="34.32916" lon="77.01147">
        <ele>3419.575</ele>
        <time>2017-07-18T07:16:12Z</time>
      </trkpt>
      <trkpt lat="34.3294" lon="77.01116">
        <ele>3418.128</ele>
        <time>2017-07-18T07:16:43Z</time>
      </trkpt>
      <trkpt lat="34.32969" lon="77.0099">
        <ele>3405.62</ele>
        <time>2017-07-18T07:18:29Z</time>
      </trkpt>
      <trkpt lat="34.33004" lon="77.00701">
        <ele>3380.108</ele>
        <time>2017-07-18T07:21:37Z</time>
      </trkpt>
      <trkpt lat="34.32993" lon="77.00648">
        <ele>3372.958</ele>
        <time>2017-07-18T07:22:15Z</time>
      </trkpt>
      <trkpt lat="34.32917" lon="77.0055">
        <ele>3359.976</ele>
        <time>2017-07-18T07:23:43Z</time>
      </trkpt>
      <trkpt lat="34.32933" lon="77.00494">
        <ele>3360.91</ele>
        <time>2017-07-18T07:24:30Z</time>
      </trkpt>
      <trkpt lat="34.32888" lon="77.00459">
        <ele>3362.862</ele>
        <time>2017-07-18T07:24:52Z</time>
      </trkpt>
      <trkpt lat="34.32892" lon="77.00385">
        <ele>3363.381</ele>
        <time>2017-07-18T07:25:42Z</time>
      </trkpt>
      <trkpt lat="34.32948" lon="77.00285">
        <ele>3361.386</ele>
        <time>2017-07-18T07:27:08Z</time>
      </trkpt>
      <trkpt lat="34.32998" lon="77.00272">
        <ele>3361.315</ele>
        <time>2017-07-18T07:28:31Z</time>
      </trkpt>
      <trkpt lat="34.33056" lon="77.00163">
        <ele>3361.886</ele>
        <time>2017-07-18T07:29:58Z</time>
      </trkpt>
      <trkpt lat="34.3306" lon="77.00085">
        <ele>3345.086</ele>
        <time>2017-07-18T07:30:46Z</time>
      </trkpt>
      <trkpt lat="34.32969" lon="76.99938">
        <ele>3336.36</ele>
        <time>2017-07-18T07:32:35Z</time>
      </trkpt>
      <trkpt lat="34.32855" lon="76.99839">
        <ele>3320.026</ele>
        <time>2017-07-18T07:35:11Z</time>
      </trkpt>
      <trkpt lat="34.32858" lon="76.99811">
        <ele>3321.008</ele>
        <time>2017-07-18T07:35:32Z</time>
      </trkpt>
      <trkpt lat="34.32818" lon="76.9977">
        <ele>3320.069</ele>
        <time>2017-07-18T07:36:02Z</time>
      </trkpt>
      <trkpt lat="34.32805" lon="76.99777">
        <ele>3320.517</ele>
        <time>2017-07-18T07:36:14Z</time>
      </trkpt>
      <trkpt lat="34.32819" lon="76.99814">
        <ele>3325.391</ele>
        <time>2017-07-18T07:36:44Z</time>
      </trkpt>
      <trkpt lat="34.32811" lon="76.99828">
        <ele>3315.723</ele>
        <time>2017-07-18T07:38:15Z</time>
      </trkpt>
      <trkpt lat="34.32763" lon="76.99667">
        <ele>3303.282</ele>
        <time>2017-07-18T07:40:04Z</time>
      </trkpt>
      <trkpt lat="34.32718" lon="76.99595">
        <ele>3295.577</ele>
        <time>2017-07-18T07:40:57Z</time>
      </trkpt>
      <trkpt lat="34.32665" lon="76.99559">
        <ele>3287.856</ele>
        <time>2017-07-18T07:42:54Z</time>
      </trkpt>
      <trkpt lat="34.32702" lon="76.99418">
        <ele>3278.267</ele>
        <time>2017-07-18T07:45:56Z</time>
      </trkpt>
      <trkpt lat="34.32673" lon="76.99378">
        <ele>3277.261</ele>
        <time>2017-07-18T07:46:24Z</time>
      </trkpt>
      <trkpt lat="34.32675" lon="76.99311">
        <ele>3272.421</ele>
        <time>2017-07-18T07:47:16Z</time>
      </trkpt>
      <trkpt lat="34.32594" lon="76.99235">
        <ele>3269.113</ele>
        <time>2017-07-18T07:48:21Z</time>
      </trkpt>
      <trkpt lat="34.32568" lon="76.99152">
        <ele>3267.108</ele>
        <time>2017-07-18T07:49:42Z</time>
      </trkpt>
      <trkpt lat="34.32539" lon="76.99139">
        <ele>3260.957</ele>
        <time>2017-07-18T07:50:25Z</time>
      </trkpt>
      <trkpt lat="34.32509" lon="76.99074">
        <ele>3261.875</ele>
        <time>2017-07-19T03:32:34Z</time>
      </trkpt>
      <trkpt lat="34.32438" lon="76.99004">
        <ele>3254.239</ele>
        <time>2017-07-19T03:34:24Z</time>
      </trkpt>
      <trkpt lat="34.32426" lon="76.98909">
        <ele>3252.221</ele>
        <time>2017-07-19T03:35:22Z</time>
      </trkpt>
      <trkpt lat="34.32435" lon="76.98865">
        <ele>3245.06</ele>
        <time>2017-07-19T03:35:50Z</time>
      </trkpt>
      <trkpt lat="34.32565" lon="76.98826">
        <ele>3250.875</ele>
        <time>2017-07-19T03:37:56Z</time>
      </trkpt>
      <trkpt lat="34.32648" lon="76.98864">
        <ele>3260.954</ele>
        <time>2017-07-19T03:39:49Z</time>
      </trkpt>
      <trkpt lat="34.32729" lon="76.98937">
        <ele>3269.195</ele>
        <time>2017-07-19T03:41:41Z</time>
      </trkpt>
      <trkpt lat="34.328" lon="76.9894">
        <ele>3276.362</ele>
        <time>2017-07-19T03:43:07Z</time>
      </trkpt>
      <trkpt lat="34.32852" lon="76.9892">
        <ele>3279.683</ele>
        <time>2017-07-19T03:44:03Z</time>
      </trkpt>
      <trkpt lat="34.32863" lon="76.99008">
        <ele>3284.911</ele>
        <time>2017-07-19T03:45:38Z</time>
      </trkpt>
      <trkpt lat="34.32896" lon="76.99013">
        <ele>3289.708</ele>
        <time>2017-07-19T03:46:12Z</time>
      </trkpt>
      <trkpt lat="34.32934" lon="76.98938">
        <ele>3295.027</ele>
        <time>2017-07-19T03:47:24Z</time>
      </trkpt>
      <trkpt lat="34.32909" lon="76.98825">
        <ele>3299.865</ele>
        <time>2017-07-19T03:49:09Z</time>
      </trkpt>
      <trkpt lat="34.32854" lon="76.98747">
        <ele>3305.639</ele>
        <time>2017-07-19T03:50:53Z</time>
      </trkpt>
      <trkpt lat="34.32924" lon="76.98694">
        <ele>3311.451</ele>
        <time>2017-07-19T03:52:18Z</time>
      </trkpt>
      <trkpt lat="34.33027" lon="76.98677">
        <ele>3318.66</ele>
        <time>2017-07-19T03:54:02Z</time>
      </trkpt>
      <trkpt lat="34.33033" lon="76.9861">
        <ele>3321.445</ele>
        <time>2017-07-19T03:54:53Z</time>
      </trkpt>
      <trkpt lat="34.33098" lon="76.9857">
        <ele>3319.094</ele>
        <time>2017-07-19T03:55:57Z</time>
      </trkpt>
      <trkpt lat="34.33104" lon="76.98516">
        <ele>3320.055</ele>
        <time>2017-07-19T03:56:43Z</time>
      </trkpt>
      <trkpt lat="34.33216" lon="76.9849">
        <ele>3324.373</ele>
        <time>2017-07-19T03:58:33Z</time>
      </trkpt>
      <trkpt lat="34.3322" lon="76.9847">
        <ele>3324.385</ele>
        <time>2017-07-19T03:58:50Z</time>
      </trkpt>
      <trkpt lat="34.33183" lon="76.98421">
        <ele>3326.713</ele>
        <time>2017-07-19T03:59:42Z</time>
      </trkpt>
      <trkpt lat="34.33189" lon="76.98397">
        <ele>3330.108</ele>
        <time>2017-07-19T04:00:04Z</time>
      </trkpt>
      <trkpt lat="34.33226" lon="76.98396">
        <ele>3331.168</ele>
        <time>2017-07-19T04:00:49Z</time>
      </trkpt>
      <trkpt lat="34.33294" lon="76.98332">
        <ele>3334.996</ele>
        <time>2017-07-19T04:02:11Z</time>
      </trkpt>
      <trkpt lat="34.33353" lon="76.9836">
        <ele>3336.89</ele>
        <time>2017-07-19T04:03:13Z</time>
      </trkpt>
      <trkpt lat="34.33376" lon="76.98332">
        <ele>3339.292</ele>
        <time>2017-07-19T04:03:43Z</time>
      </trkpt>
      <trkpt lat="34.33432" lon="76.98308">
        <ele>3339.781</ele>
        <time>2017-07-19T04:04:38Z</time>
      </trkpt>
      <trkpt lat="34.33488" lon="76.98352">
        <ele>3345.076</ele>
        <time>2017-07-19T04:05:43Z</time>
      </trkpt>
      <trkpt lat="34.3349" lon="76.98259">
        <ele>3349.365</ele>
        <time>2017-07-19T04:06:55Z</time>
      </trkpt>
      <trkpt lat="34.33461" lon="76.98204">
        <ele>3350.886</ele>
        <time>2017-07-19T04:07:44Z</time>
      </trkpt>
      <trkpt lat="34.33465" lon="76.98183">
        <ele>3350.368</ele>
        <time>2017-07-19T04:08:00Z</time>
      </trkpt>
      <trkpt lat="34.33562" lon="76.98124">
        <ele>3354.142</ele>
        <time>2017-07-19T04:09:41Z</time>
      </trkpt>
      <trkpt lat="34.33558" lon="76.98094">
        <ele>3358.026</ele>
        <time>2017-07-19T04:10:06Z</time>
      </trkpt>
      <trkpt lat="34.33625" lon="76.98028">
        <ele>3361.308</ele>
        <time>2017-07-19T04:11:33Z</time>
      </trkpt>
      <trkpt lat="34.33729" lon="76.9797">
        <ele>3368.657</ele>
        <time>2017-07-19T04:13:32Z</time>
      </trkpt>
      <trkpt lat="34.33724" lon="76.97893">
        <ele>3374.895</ele>
        <time>2017-07-19T04:14:36Z</time>
      </trkpt>
      <trkpt lat="34.33748" lon="76.97851">
        <ele>3378.239</ele>
        <time>2017-07-19T04:15:17Z</time>
      </trkpt>
      <trkpt lat="34.33721" lon="76.9782">
        <ele>3380.651</ele>
        <time>2017-07-19T04:15:50Z</time>
      </trkpt>
      <trkpt lat="34.33677" lon="76.97802">
        <ele>3379.16</ele>
        <time>2017-07-19T04:16:38Z</time>
      </trkpt>
      <trkpt lat="34.33645" lon="76.97746">
        <ele>3383.575</ele>
        <time>2017-07-19T04:17:32Z</time>
      </trkpt>
      <trkpt lat="34.33649" lon="76.97725">
        <ele>3384.914</ele>
        <time>2017-07-19T04:17:58Z</time>
      </trkpt>
      <trkpt lat="34.33687" lon="76.97702">
        <ele>3385.435</ele>
        <time>2017-07-19T04:21:40Z</time>
      </trkpt>
      <trkpt lat="34.33736" lon="76.97701">
        <ele>3387.333</ele>
        <time>2017-07-19T04:22:32Z</time>
      </trkpt>
      <trkpt lat="34.33763" lon="76.9766">
        <ele>3390.723</ele>
        <time>2017-07-19T04:23:23Z</time>
      </trkpt>
      <trkpt lat="34.33863" lon="76.97623">
        <ele>3396.915</ele>
        <time>2017-07-19T04:25:07Z</time>
      </trkpt>
      <trkpt lat="34.33974" lon="76.9763">
        <ele>3406.008</ele>
        <time>2017-07-19T04:26:58Z</time>
      </trkpt>
      <trkpt lat="34.34006" lon="76.97529">
        <ele>3407.584</ele>
        <time>2017-07-19T04:28:27Z</time>
      </trkpt>
      <trkpt lat="34.34037" lon="76.97503">
        <ele>3404.172</ele>
        <time>2017-07-19T04:28:57Z</time>
      </trkpt>
      <trkpt lat="34.34071" lon="76.97429">
        <ele>3406.536</ele>
        <time>2017-07-19T04:29:58Z</time>
      </trkpt>
      <trkpt lat="34.34155" lon="76.97428">
        <ele>3407.028</ele>
        <time>2017-07-19T04:31:44Z</time>
      </trkpt>
      <trkpt lat="34.34211" lon="76.97328">
        <ele>3412.897</ele>
        <time>2017-07-19T04:33:15Z</time>
      </trkpt>
      <trkpt lat="34.34487" lon="76.9721">
        <ele>3420.932</ele>
        <time>2017-07-19T04:37:41Z</time>
      </trkpt>
      <trkpt lat="34.3458" lon="76.97133">
        <ele>3424.881</ele>
        <time>2017-07-19T04:39:31Z</time>
      </trkpt>
      <trkpt lat="34.34562" lon="76.97087">
        <ele>3431.082</ele>
        <time>2017-07-19T04:43:12Z</time>
      </trkpt>
      <trkpt lat="34.34566" lon="76.97097">
        <ele>3431.054</ele>
        <time>2017-07-19T04:44:24Z</time>
      </trkpt>
      <trkpt lat="34.34528" lon="76.97067">
        <ele>3443.156</ele>
        <time>2017-07-19T04:45:37Z</time>
      </trkpt>
      <trkpt lat="34.34545" lon="76.9706">
        <ele>3442.111</ele>
        <time>2017-07-19T04:46:05Z</time>
      </trkpt>
      <trkpt lat="34.34525" lon="76.97043">
        <ele>3449.308</ele>
        <time>2017-07-19T04:47:28Z</time>
      </trkpt>
      <trkpt lat="34.34581" lon="76.97006">
        <ele>3455.646</ele>
        <time>2017-07-19T04:49:35Z</time>
      </trkpt>
      <trkpt lat="34.34598" lon="76.96967">
        <ele>3464.724</ele>
        <time>2017-07-19T04:51:32Z</time>
      </trkpt>
      <trkpt lat="34.34687" lon="76.96951">
        <ele>3469.588</ele>
        <time>2017-07-19T04:55:22Z</time>
      </trkpt>
      <trkpt lat="34.34715" lon="76.9691">
        <ele>3474.36</ele>
        <time>2017-07-19T04:56:19Z</time>
      </trkpt>
      <trkpt lat="34.34757" lon="76.96884">
        <ele>3478.159</ele>
        <time>2017-07-19T04:57:22Z</time>
      </trkpt>
      <trkpt lat="34.34791" lon="76.96794">
        <ele>3489.264</ele>
        <time>2017-07-19T04:59:29Z</time>
      </trkpt>
      <trkpt lat="34.34898" lon="76.96699">
        <ele>3511.343</ele>
        <time>2017-07-19T05:03:25Z</time>
      </trkpt>
      <trkpt lat="34.34942" lon="76.966">
        <ele>3511.884</ele>
        <time>2017-07-19T05:05:22Z</time>
      </trkpt>
      <trkpt lat="34.35109" lon="76.96487">
        <ele>3532.086</ele>
        <time>2017-07-19T05:09:18Z</time>
      </trkpt>
      <trkpt lat="34.35276" lon="76.9622">
        <ele>3530.16</ele>
        <time>2017-07-19T05:14:46Z</time>
      </trkpt>
      <trkpt lat="34.3532" lon="76.96178">
        <ele>3530.526</ele>
        <time>2017-07-19T05:15:54Z</time>
      </trkpt>
      <trkpt lat="34.35357" lon="76.96108">
        <ele>3530.508</ele>
        <time>2017-07-19T05:17:10Z</time>
      </trkpt>
      <trkpt lat="34.35358" lon="76.96066">
        <ele>3530.149</ele>
        <time>2017-07-19T05:17:46Z</time>
      </trkpt>
      <trkpt lat="34.3539" lon="76.96024">
        <ele>3530.527</ele>
        <time>2017-07-19T05:19:02Z</time>
      </trkpt>
      <trkpt lat="34.35338" lon="76.96053">
        <ele>3728.611</ele>
        <time>2017-07-19T05:19:16Z</time>
      </trkpt>
      <trkpt lat="34.35437" lon="76.95886">
        <ele>3724.743</ele>
        <time>2017-07-19T05:23:58Z</time>
      </trkpt>
      <trkpt lat="34.35432" lon="76.95769">
        <ele>3724.242</ele>
        <time>2017-07-19T05:25:55Z</time>
      </trkpt>
      <trkpt lat="34.35473" lon="76.95679">
        <ele>3718.527</ele>
        <time>2017-07-19T05:28:20Z</time>
      </trkpt>
      <trkpt lat="34.35489" lon="76.9569">
        <ele>3716.116</ele>
        <time>2017-07-19T05:28:42Z</time>
      </trkpt>
      <trkpt lat="34.35479" lon="76.95695">
        <ele>3793.067</ele>
        <time>2017-07-19T05:28:58Z</time>
      </trkpt>
      <trkpt lat="34.35533" lon="76.95623">
        <ele>3717.075</ele>
        <time>2017-07-19T05:30:19Z</time>
      </trkpt>
      <trkpt lat="34.35623" lon="76.95581">
        <ele>3696.828</ele>
        <time>2017-07-19T05:33:15Z</time>
      </trkpt>
      <trkpt lat="34.35706" lon="76.95492">
        <ele>3611.82</ele>
        <time>2017-07-19T05:35:13Z</time>
      </trkpt>
      <trkpt lat="34.35745" lon="76.95385">
        <ele>3618.008</ele>
        <time>2017-07-19T05:37:37Z</time>
      </trkpt>
      <trkpt lat="34.35812" lon="76.95351">
        <ele>3630.578</ele>
        <time>2017-07-19T05:41:43Z</time>
      </trkpt>
      <trkpt lat="34.35818" lon="76.95319">
        <ele>3635.856</ele>
        <time>2017-07-19T05:42:27Z</time>
      </trkpt>
      <trkpt lat="34.35851" lon="76.95312">
        <ele>3642.08</ele>
        <time>2017-07-19T05:43:25Z</time>
      </trkpt>
      <trkpt lat="34.35986" lon="76.95106">
        <ele>3658.412</ele>
        <time>2017-07-19T05:48:39Z</time>
      </trkpt>
      <trkpt lat="34.36095" lon="76.95017">
        <ele>3667.021</ele>
        <time>2017-07-19T05:51:50Z</time>
      </trkpt>
      <trkpt lat="34.3619" lon="76.94899">
        <ele>3679.146</ele>
        <time>2017-07-19T05:56:09Z</time>
      </trkpt>
      <trkpt lat="34.36184" lon="76.94883">
        <ele>3680.535</ele>
        <time>2017-07-19T05:56:53Z</time>
      </trkpt>
      <trkpt lat="34.36129" lon="76.9489">
        <ele>3697.396</ele>
        <time>2017-07-19T05:58:24Z</time>
      </trkpt>
      <trkpt lat="34.361" lon="76.94871">
        <ele>3691.113</ele>
        <time>2017-07-19T05:59:27Z</time>
      </trkpt>
      <trkpt lat="34.36094" lon="76.94838">
        <ele>3698.843</ele>
        <time>2017-07-19T06:00:44Z</time>
      </trkpt>
      <trkpt lat="34.36149" lon="76.94672">
        <ele>3722.307</ele>
        <time>2017-07-19T06:06:12Z</time>
      </trkpt>
      <trkpt lat="34.36149" lon="76.94439">
        <ele>3780.008</ele>
        <time>2017-07-19T06:15:43Z</time>
      </trkpt>
      <trkpt lat="34.36211" lon="76.94292">
        <ele>3817.582</ele>
        <time>2017-07-19T06:23:07Z</time>
      </trkpt>
      <trkpt lat="34.36302" lon="76.94176">
        <ele>3862.21</ele>
        <time>2017-07-19T06:31:07Z</time>
      </trkpt>
      <trkpt lat="34.36347" lon="76.9415">
        <ele>3885.754</ele>
        <time>2017-07-19T06:34:19Z</time>
      </trkpt>
      <trkpt lat="34.36342" lon="76.94095">
        <ele>3900.256</ele>
        <time>2017-07-19T06:36:44Z</time>
      </trkpt>
      <trkpt lat="34.36461" lon="76.94125">
        <ele>3931.415</ele>
        <time>2017-07-19T06:42:34Z</time>
      </trkpt>
      <trkpt lat="34.36497" lon="76.94115">
        <ele>3943.95</ele>
        <time>2017-07-19T06:48:29Z</time>
      </trkpt>
      <trkpt lat="34.36495" lon="76.94128">
        <ele>3945.839</ele>
        <time>2017-07-19T06:52:53Z</time>
      </trkpt>
      <trkpt lat="34.36559" lon="76.93971">
        <ele>3944.94</ele>
        <time>2017-07-19T06:58:13Z</time>
      </trkpt>
      <trkpt lat="34.36675" lon="76.93785">
        <ele>3960.799</ele>
        <time>2017-07-19T07:03:30Z</time>
      </trkpt>
      <trkpt lat="34.36767" lon="76.93738">
        <ele>3973.707</ele>
        <time>2017-07-19T07:06:40Z</time>
      </trkpt>
      <trkpt lat="34.36802" lon="76.93664">
        <ele>3988.627</ele>
        <time>2017-07-19T07:09:03Z</time>
      </trkpt>
      <trkpt lat="34.36906" lon="76.93552">
        <ele>4011.208</ele>
        <time>2017-07-19T07:14:06Z</time>
      </trkpt>
      <trkpt lat="34.36973" lon="76.93534">
        <ele>4019.88</ele>
        <time>2017-07-19T07:16:41Z</time>
      </trkpt>
      <trkpt lat="34.37162" lon="76.93297">
        <ele>4070.348</ele>
        <time>2017-07-19T07:27:35Z</time>
      </trkpt>
      <trkpt lat="34.37163" lon="76.93251">
        <ele>4064.542</ele>
        <time>2017-07-19T07:33:53Z</time>
      </trkpt>
      <trkpt lat="34.37152" lon="76.93248">
        <ele>4062.644</ele>
        <time>2017-07-19T07:34:30Z</time>
      </trkpt>
      <trkpt lat="34.3715" lon="76.93204">
        <ele>4042.953</ele>
        <time>2017-07-19T07:35:23Z</time>
      </trkpt>
      <trkpt lat="34.37133" lon="76.93175">
        <ele>4030.938</ele>
        <time>2017-07-19T07:37:06Z</time>
      </trkpt>
      <trkpt lat="34.37143" lon="76.93132">
        <ele>4013.697</ele>
        <time>2017-07-19T07:38:07Z</time>
      </trkpt>
      <trkpt lat="34.37101" lon="76.92977">
        <ele>3983.878</ele>
        <time>2017-07-19T07:40:55Z</time>
      </trkpt>
      <trkpt lat="34.37118" lon="76.92938">
        <ele>3972.751</ele>
        <time>2017-07-19T07:42:18Z</time>
      </trkpt>
      <trkpt lat="34.37161" lon="76.92896">
        <ele>3970.801</ele>
        <time>2017-07-19T07:43:09Z</time>
      </trkpt>
      <trkpt lat="34.37175" lon="76.92796">
        <ele>3955.911</ele>
        <time>2017-07-19T07:44:43Z</time>
      </trkpt>
      <trkpt lat="34.3716" lon="76.92635">
        <ele>3915.508</ele>
        <time>2017-07-19T07:47:35Z</time>
      </trkpt>
      <trkpt lat="34.37175" lon="76.92608">
        <ele>3912.236</ele>
        <time>2017-07-19T07:48:02Z</time>
      </trkpt>
      <trkpt lat="34.37154" lon="76.92529">
        <ele>3888.694</ele>
        <time>2017-07-19T07:49:49Z</time>
      </trkpt>
      <trkpt lat="34.37167" lon="76.92359">
        <ele>3841.038</ele>
        <time>2017-07-19T07:53:11Z</time>
      </trkpt>
      <trkpt lat="34.37149" lon="76.92275">
        <ele>3832.47</ele>
        <time>2017-07-19T07:54:50Z</time>
      </trkpt>
      <trkpt lat="34.37159" lon="76.92187">
        <ele>3822.349</ele>
        <time>2017-07-19T07:56:51Z</time>
      </trkpt>
      <trkpt lat="34.37213" lon="76.92087">
        <ele>3804.084</ele>
        <time>2017-07-19T07:57:59Z</time>
      </trkpt>
      <trkpt lat="34.37222" lon="76.91958">
        <ele>3790.113</ele>
        <time>2017-07-19T07:59:47Z</time>
      </trkpt>
      <trkpt lat="34.37109" lon="76.91597">
        <ele>3750.254</ele>
        <time>2017-07-19T08:05:46Z</time>
      </trkpt>
      <trkpt lat="34.3711" lon="76.91545">
        <ele>3743.995</ele>
        <time>2017-07-19T08:06:41Z</time>
      </trkpt>
      <trkpt lat="34.3713" lon="76.91518">
        <ele>3736.349</ele>
        <time>2017-07-19T08:07:29Z</time>
      </trkpt>
      <trkpt lat="34.37099" lon="76.91438">
        <ele>3721.823</ele>
        <time>2017-07-19T08:10:15Z</time>
      </trkpt>
      <trkpt lat="34.3711" lon="76.91212">
        <ele>3680.508</ele>
        <time>2017-07-19T08:13:19Z</time>
      </trkpt>
      <trkpt lat="34.3703" lon="76.9093">
        <ele>3644.07</ele>
        <time>2017-07-19T08:17:24Z</time>
      </trkpt>
      <trkpt lat="34.37024" lon="76.90807">
        <ele>3640.198</ele>
        <time>2017-07-19T08:20:42Z</time>
      </trkpt>
      <trkpt lat="34.37196" lon="76.90807">
        <ele>3592.182</ele>
        <time>2017-07-19T08:30:13Z</time>
      </trkpt>
      <trkpt lat="34.37214" lon="76.90733">
        <ele>3587.374</ele>
        <time>2017-07-19T08:31:46Z</time>
      </trkpt>
      <trkpt lat="34.37099" lon="76.90509">
        <ele>3552.273</ele>
        <time>2017-07-19T08:36:26Z</time>
      </trkpt>
      <trkpt lat="34.37074" lon="76.90424">
        <ele>3558.988</ele>
        <time>2017-07-19T08:37:56Z</time>
      </trkpt>
      <trkpt lat="34.36999" lon="76.90415">
        <ele>3547.437</ele>
        <time>2017-07-19T08:40:49Z</time>
      </trkpt>
      <trkpt lat="34.36983" lon="76.9036">
        <ele>3551.778</ele>
        <time>2017-07-19T08:41:51Z</time>
      </trkpt>
      <trkpt lat="34.36933" lon="76.90292">
        <ele>3559.922</ele>
        <time>2017-07-19T08:44:10Z</time>
      </trkpt>
      <trkpt lat="34.36946" lon="76.90237">
        <ele>3549.362</ele>
        <time>2017-07-19T08:44:50Z</time>
      </trkpt>
      <trkpt lat="34.36989" lon="76.90196">
        <ele>3542.608</ele>
        <time>2017-07-19T08:46:28Z</time>
      </trkpt>
      <trkpt lat="34.36905" lon="76.90251">
        <ele>3566.108</ele>
        <time>2017-07-20T03:26:19Z</time>
      </trkpt>
      <trkpt lat="34.36832" lon="76.90253">
        <ele>3571.413</ele>
        <time>2017-07-20T03:27:23Z</time>
      </trkpt>
      <trkpt lat="34.36834" lon="76.90271">
        <ele>3546.951</ele>
        <time>2017-07-20T03:27:38Z</time>
      </trkpt>
      <trkpt lat="34.36738" lon="76.90163">
        <ele>3526.265</ele>
        <time>2017-07-20T03:29:17Z</time>
      </trkpt>
      <trkpt lat="34.36674" lon="76.90149">
        <ele>3509.967</ele>
        <time>2017-07-20T03:31:40Z</time>
      </trkpt>
      <trkpt lat="34.36739" lon="76.90147">
        <ele>3506.536</ele>
        <time>2017-07-20T03:32:53Z</time>
      </trkpt>
      <trkpt lat="34.36688" lon="76.90128">
        <ele>3506.081</ele>
        <time>2017-07-20T03:33:47Z</time>
      </trkpt>
      <trkpt lat="34.36519" lon="76.9014">
        <ele>3477.71</ele>
        <time>2017-07-20T03:36:03Z</time>
      </trkpt>
      <trkpt lat="34.36449" lon="76.9019">
        <ele>3478.121</ele>
        <time>2017-07-20T03:37:12Z</time>
      </trkpt>
      <trkpt lat="34.36413" lon="76.90114">
        <ele>3493.023</ele>
        <time>2017-07-20T03:38:26Z</time>
      </trkpt>
      <trkpt lat="34.36216" lon="76.89993">
        <ele>3463.283</ele>
        <time>2017-07-20T03:41:15Z</time>
      </trkpt>
      <trkpt lat="34.36197" lon="76.89908">
        <ele>3453.611</ele>
        <time>2017-07-20T03:42:20Z</time>
      </trkpt>
      <trkpt lat="34.36102" lon="76.89936">
        <ele>3452.208</ele>
        <time>2017-07-20T03:43:46Z</time>
      </trkpt>
      <trkpt lat="34.36094" lon="76.89952">
        <ele>3444.063</ele>
        <time>2017-07-20T03:44:19Z</time>
      </trkpt>
      <trkpt lat="34.36145" lon="76.89901">
        <ele>3436.811</ele>
        <time>2017-07-20T03:45:19Z</time>
      </trkpt>
      <trkpt lat="34.36074" lon="76.89888">
        <ele>3432.085</ele>
        <time>2017-07-20T03:46:21Z</time>
      </trkpt>
      <trkpt lat="34.36048" lon="76.89804">
        <ele>3414.227</ele>
        <time>2017-07-20T03:47:18Z</time>
      </trkpt>
      <trkpt lat="34.36007" lon="76.89794">
        <ele>3417.646</ele>
        <time>2017-07-20T03:47:49Z</time>
      </trkpt>
      <trkpt lat="34.359" lon="76.89868">
        <ele>3403.221</ele>
        <time>2017-07-20T03:49:48Z</time>
      </trkpt>
      <trkpt lat="34.35858" lon="76.89877">
        <ele>3392.69</ele>
        <time>2017-07-20T03:50:30Z</time>
      </trkpt>
      <trkpt lat="34.3576" lon="76.89957">
        <ele>3374.891</ele>
        <time>2017-07-20T03:52:00Z</time>
      </trkpt>
      <trkpt lat="34.35702" lon="76.89958">
        <ele>3373.438</ele>
        <time>2017-07-20T03:52:49Z</time>
      </trkpt>
      <trkpt lat="34.35639" lon="76.89875">
        <ele>3372.97</ele>
        <time>2017-07-20T03:54:16Z</time>
      </trkpt>
      <trkpt lat="34.35626" lon="76.89893">
        <ele>3377.217</ele>
        <time>2017-07-20T03:54:34Z</time>
      </trkpt>
      <trkpt lat="34.35564" lon="76.89899">
        <ele>3377.208</ele>
        <time>2017-07-20T03:55:16Z</time>
      </trkpt>
      <trkpt lat="34.35351" lon="76.8998">
        <ele>3334.454</ele>
        <time>2017-07-20T03:58:23Z</time>
      </trkpt>
      <trkpt lat="34.35282" lon="76.89931">
        <ele>3347.972</ele>
        <time>2017-07-20T03:59:26Z</time>
      </trkpt>
      <trkpt lat="34.35125" lon="76.89916">
        <ele>3360.996</ele>
        <time>2017-07-20T04:01:30Z</time>
      </trkpt>
      <trkpt lat="34.3517" lon="76.89852">
        <ele>3312.348</ele>
        <time>2017-07-20T04:02:57Z</time>
      </trkpt>
      <trkpt lat="34.35154" lon="76.89819">
        <ele>3307.567</ele>
        <time>2017-07-20T04:03:29Z</time>
      </trkpt>
      <trkpt lat="34.35083" lon="76.89821">
        <ele>3316.262</ele>
        <time>2017-07-20T04:04:28Z</time>
      </trkpt>
      <trkpt lat="34.34979" lon="76.89771">
        <ele>3312.881</ele>
        <time>2017-07-20T04:05:57Z</time>
      </trkpt>
      <trkpt lat="34.34934" lon="76.89781">
        <ele>3308.012</ele>
        <time>2017-07-20T04:06:31Z</time>
      </trkpt>
      <trkpt lat="34.34819" lon="76.8976">
        <ele>3302.226</ele>
        <time>2017-07-20T04:08:05Z</time>
      </trkpt>
      <trkpt lat="34.34689" lon="76.89684">
        <ele>3293.647</ele>
        <time>2017-07-20T04:10:05Z</time>
      </trkpt>
      <trkpt lat="34.34601" lon="76.8954">
        <ele>3261.411</ele>
        <time>2017-07-20T04:12:05Z</time>
      </trkpt>
      <trkpt lat="34.34427" lon="76.89327">
        <ele>3239.708</ele>
        <time>2017-07-20T04:15:31Z</time>
      </trkpt>
      <trkpt lat="34.34403" lon="76.89333">
        <ele>3230.663</ele>
        <time>2017-07-20T04:16:02Z</time>
      </trkpt>
      <trkpt lat="34.34329" lon="76.89264">
        <ele>3220.511</ele>
        <time>2017-07-20T04:17:19Z</time>
      </trkpt>
      <trkpt lat="34.34269" lon="76.89167">
        <ele>3234.065</ele>
        <time>2017-07-20T04:18:43Z</time>
      </trkpt>
      <trkpt lat="34.34222" lon="76.89043">
        <ele>3221.537</ele>
        <time>2017-07-20T04:20:14Z</time>
      </trkpt>
      <trkpt lat="34.34119" lon="76.88848">
        <ele>3187.866</ele>
        <time>2017-07-20T04:22:43Z</time>
      </trkpt>
      <trkpt lat="34.34134" lon="76.88782">
        <ele>3180.141</ele>
        <time>2017-07-20T04:23:31Z</time>
      </trkpt>
      <trkpt lat="34.34084" lon="76.88786">
        <ele>3178.22</ele>
        <time>2017-07-20T04:24:10Z</time>
      </trkpt>
      <trkpt lat="34.34008" lon="76.88728">
        <ele>3168.691</ele>
        <time>2017-07-20T04:25:31Z</time>
      </trkpt>
      <trkpt lat="34.33991" lon="76.88693">
        <ele>3175.316</ele>
        <time>2017-07-20T04:26:19Z</time>
      </trkpt>
      <trkpt lat="34.33991" lon="76.88707">
        <ele>3176.876</ele>
        <time>2017-07-20T04:26:32Z</time>
      </trkpt>
      <trkpt lat="34.33934" lon="76.88655">
        <ele>3169.113</ele>
        <time>2017-07-20T04:27:42Z</time>
      </trkpt>
      <trkpt lat="34.33867" lon="76.88507">
        <ele>3155.108</ele>
        <time>2017-07-20T04:29:44Z</time>
      </trkpt>
      <trkpt lat="34.33757" lon="76.884">
        <ele>3147.452</ele>
        <time>2017-07-20T04:31:52Z</time>
      </trkpt>
      <trkpt lat="34.33679" lon="76.88406">
        <ele>3134.07</ele>
        <time>2017-07-20T04:32:50Z</time>
      </trkpt>
      <trkpt lat="34.33661" lon="76.88376">
        <ele>3126.374</ele>
        <time>2017-07-20T04:33:39Z</time>
      </trkpt>
      <trkpt lat="34.33399" lon="76.88329">
        <ele>3110.016</ele>
        <time>2017-07-20T04:37:11Z</time>
      </trkpt>
      <trkpt lat="34.33277" lon="76.88233">
        <ele>3110.435</ele>
        <time>2017-07-20T04:39:06Z</time>
      </trkpt>
      <trkpt lat="34.33268" lon="76.88189">
        <ele>3116.22</ele>
        <time>2017-07-20T04:39:35Z</time>
      </trkpt>
      <trkpt lat="34.3322" lon="76.88129">
        <ele>3122.919</ele>
        <time>2017-07-20T04:40:37Z</time>
      </trkpt>
      <trkpt lat="34.33106" lon="76.88143">
        <ele>3135.97</ele>
        <time>2017-07-20T04:41:57Z</time>
      </trkpt>
      <trkpt lat="34.32969" lon="76.88184">
        <ele>3131.145</ele>
        <time>2017-07-20T04:43:53Z</time>
      </trkpt>
      <trkpt lat="34.32818" lon="76.88314">
        <ele>3061.947</ele>
        <time>2017-07-20T04:47:16Z</time>
      </trkpt>
      <trkpt lat="34.3267" lon="76.88379">
        <ele>3053.711</ele>
        <time>2017-07-20T04:49:12Z</time>
      </trkpt>
      <trkpt lat="34.32622" lon="76.88375">
        <ele>3058.508</ele>
        <time>2017-07-20T04:49:44Z</time>
      </trkpt>
      <trkpt lat="34.32617" lon="76.88336">
        <ele>3062.425</ele>
        <time>2017-07-20T04:50:11Z</time>
      </trkpt>
      <trkpt lat="34.32547" lon="76.88331">
        <ele>3065.723</ele>
        <time>2017-07-20T04:51:05Z</time>
      </trkpt>
      <trkpt lat="34.32478" lon="76.88396">
        <ele>3051.377</ele>
        <time>2017-07-20T04:52:21Z</time>
      </trkpt>
      <trkpt lat="34.32457" lon="76.88384">
        <ele>3078.739</ele>
        <time>2017-07-20T04:53:23Z</time>
      </trkpt>
    </trkseg>
  </trk>
</gpx>